Time;durP1;ratioP1;P1;durP2;ratioP2;P2;SDS_P1;SDS_P2;PMS_P1;PMS_P2;Temp;Humidity;BMP_temperature;BMP_pressure;BME280_temperature;BME280_humidity;BME280_pressure;Samples;Min_cycle;Max_cycle;Signal;HPM_P1;HPM_P2
2021/10/31 00:02:17;;;;;;;39.33;26.95;;;13.40;99.90;;;;;;5073533;28;20142;-72
2021/10/31 00:04:43;;;;;;;35.78;26.33;;;13.40;99.90;;;;;;5086506;28;20028;-72
2021/10/31 00:07:08;;;;;;;40.78;27.45;;;13.40;99.90;;;;;;5094105;28;20508;-72
2021/10/31 00:09:34;;;;;;;36.55;26.33;;;13.50;99.90;;;;;;5093890;28;20035;-72
2021/10/31 00:12:00;;;;;;;42.13;26.90;;;13.50;99.90;;;;;;5093790;28;20020;-72
2021/10/31 00:14:26;;;;;;;35.10;24.85;;;13.50;99.90;;;;;;5094007;28;20484;-73
2021/10/31 00:16:58;;;;;;;42.45;26.95;;;13.50;99.90;;;;;;5093994;28;20568;-70
2021/10/31 00:19:27;;;;;;;;;;;13.40;99.90;;;;;;5076251;28;20036;-72
2021/10/31 00:21:53;;;;;;;35.55;25.25;;;13.40;99.90;;;;;;5093555;28;19999;-72
2021/10/31 00:24:19;;;;;;;36.80;26.23;;;13.40;99.90;;;;;;5093786;28;20132;-72
2021/10/31 00:26:45;;;;;;;38.50;27.67;;;13.40;99.90;;;;;;5092959;28;20040;-72
2021/10/31 00:29:11;;;;;;;42.90;26.73;;;13.50;99.90;;;;;;5093434;28;20111;-72
2021/10/31 00:31:37;;;;;;;39.78;27.58;;;13.50;99.90;;;;;;5079828;28;20033;-73
2021/10/31 00:34:03;;;;;;;35.25;26.58;;;13.40;99.90;;;;;;5072766;28;20170;-73
2021/10/31 00:36:28;;;;;;;39.97;27.40;;;13.50;99.90;;;;;;5072756;28;20700;-72
2021/10/31 00:38:54;;;;;;;36.78;25.80;;;13.40;99.90;;;;;;5072972;28;20025;-72
2021/10/31 00:41:20;;;;;;;40.65;27.05;;;13.40;99.90;;;;;;5072623;28;20036;-72
2021/10/31 00:43:46;;;;;;;38.67;27.27;;;13.40;99.90;;;;;;5072849;28;20036;-71
2021/10/31 00:46:11;;;;;;;41.58;27.42;;;13.40;99.90;;;;;;5072675;28;20095;-72
2021/10/31 00:48:38;;;;;;;40.65;26.00;;;13.40;99.90;;;;;;5073042;28;20607;-72
2021/10/31 00:51:04;;;;;;;34.85;25.83;;;13.40;99.90;;;;;;5072856;28;20025;-72
2021/10/31 00:53:30;;;;;;;42.33;26.63;;;13.40;99.90;;;;;;5072779;28;20696;-72
2021/10/31 00:55:55;;;;;;;38.05;27.02;;;13.40;99.90;;;;;;5072555;28;20023;-72
2021/10/31 00:58:21;;;;;;;35.03;25.42;;;13.30;99.90;;;;;;5072263;28;20114;-72
2021/10/31 01:00:47;;;;;;;37.70;26.17;;;13.40;99.90;;;;;;5072206;28;20035;-72
2021/10/31 01:03:14;;;;;;;34.90;25.15;;;13.40;99.90;;;;;;5072600;28;20465;-72
2021/10/31 01:05:47;;;;;;;39.92;27.20;;;13.40;99.90;;;;;;5072236;28;20099;-71
2021/10/31 01:09:04;;;;;;;41.25;26.88;;;13.40;99.90;;;;;;5073098;28;20085;-71
2021/10/31 01:12:10;;;;;;;39.67;27.77;;;13.30;99.90;;;;;;5030743;28;20044;-72
2021/10/31 01:15:20;;;;;;;38.60;26.48;;;13.30;99.90;;;;;;4952802;29;20539;-72
2021/10/31 01:18:08;;;;;;;39.17;27.02;;;13.30;99.90;;;;;;4986648;28;20035;-71
2021/10/31 01:20:58;;;;;;;38.03;27.33;;;13.30;99.90;;;;;;5068303;28;20049;-72
2021/10/31 01:23:42;;;;;;;37.63;26.73;;;13.30;99.90;;;;;;5072648;28;20028;-71
2021/10/31 01:26:42;;;;;;;36.60;27.08;;;13.20;99.90;;;;;;5072606;28;20615;-72
2021/10/31 01:29:29;;;;;;;41.00;26.65;;;13.20;99.90;;;;;;5034988;28;20142;-71
2021/10/31 01:32:32;;;;;;;37.25;25.77;;;13.20;99.90;;;;;;5072504;28;20033;-72
2021/10/31 01:35:37;;;;;;;36.58;26.85;;;13.20;99.90;;;;;;5072832;28;20500;-72
2021/10/31 01:38:05;;;;;;;35.85;26.23;;;13.10;99.90;;;;;;4991480;28;20030;-72
2021/10/31 01:40:54;;;;;;;39.92;27.58;;;13.10;99.90;;;;;;4991431;28;20085;-71
2021/10/31 01:43:44;;;;;;;38.00;26.17;;;13.10;99.90;;;;;;5024107;28;20055;-72
2021/10/31 01:46:40;;;;;;;41.25;27.00;;;13.10;99.90;;;;;;5077117;28;20098;-72
2021/10/31 01:49:17;;;;;;;35.35;25.88;;;13.10;99.90;;;;;;5083453;28;20029;-71
2021/10/31 01:51:50;;;;;;;42.88;27.67;;;13.10;99.90;;;;;;5088863;28;20028;-72
2021/10/31 01:54:19;;;;;;;41.38;27.80;;;13.10;99.90;;;;;;5083042;28;20162;-72
2021/10/31 01:56:50;;;;;;;38.45;27.73;;;13.00;99.90;;;;;;5092782;28;20502;-71
2021/10/31 01:59:22;;;;;;;39.55;25.98;;;13.00;99.90;;;;;;5092464;28;20020;-72
2021/10/31 02:01:50;;;;;;;39.10;26.40;;;13.00;99.90;;;;;;5092366;28;20032;-71
2021/10/31 02:04:18;;;;;;;37.72;25.85;;;13.00;99.90;;;;;;5092684;28;20384;-72
2021/10/31 02:06:47;;;;;;;41.67;28.40;;;13.00;99.90;;;;;;5078001;28;20037;-72
2021/10/31 02:09:16;;;;;;;35.95;25.15;;;12.90;99.90;;;;;;5092572;28;20039;-71
2021/10/31 02:11:44;;;;;;;42.15;26.63;;;12.90;99.90;;;;;;5092484;28;20498;-71
2021/10/31 02:14:10;;;;;;;36.95;26.75;;;12.80;99.90;;;;;;5092558;28;20103;-71
2021/10/31 02:16:38;;;;;;;37.30;25.38;;;12.70;99.90;;;;;;5092173;28;20034;-72
2021/10/31 02:19:08;;;;;;;37.20;26.92;;;12.70;99.90;;;;;;5092008;28;20024;-72
2021/10/31 02:21:36;;;;;;;40.83;26.75;;;12.70;99.90;;;;;;5092347;28;20047;-72
2021/10/31 02:24:03;;;;;;;46.78;26.88;;;12.60;99.90;;;;;;5092191;28;20024;-72
2021/10/31 02:26:30;;;;;;;41.05;27.75;;;12.60;99.90;;;;;;5092190;28;20079;-71
2021/10/31 02:29:02;;;;;;;43.25;26.38;;;12.60;99.90;;;;;;5073946;28;20032;-72
2021/10/31 02:31:29;;;;;;;40.15;27.67;;;12.50;99.90;;;;;;5080356;28;20063;-71
2021/10/31 02:33:57;;;;;;;41.00;26.58;;;12.50;99.90;;;;;;5070663;28;20059;-72
2021/10/31 02:36:23;;;;;;;41.75;27.35;;;12.50;99.90;;;;;;5071908;28;20032;-72
2021/10/31 02:38:48;;;;;;;40.70;27.10;;;12.50;99.90;;;;;;5071983;28;20028;-72
2021/10/31 02:41:14;;;;;;;38.22;27.02;;;12.60;99.90;;;;;;5070801;28;20043;-72
2021/10/31 02:43:40;;;;;;;39.17;27.63;;;12.50;99.90;;;;;;5066411;28;20036;-72
2021/10/31 02:46:06;;;;;;;41.55;28.00;;;12.50;99.90;;;;;;5068033;28;20509;-72
2021/10/31 02:48:33;;;;;;;41.80;28.42;;;12.50;99.90;;;;;;5072176;28;20039;-72
2021/10/31 02:51:04;;;;;;;39.50;27.45;;;12.50;99.90;;;;;;5071964;28;20489;-72
2021/10/31 02:53:37;;;;;;;39.72;28.40;;;12.50;99.90;;;;;;5071623;28;20460;-72
2021/10/31 02:56:24;;;;;;;36.15;26.52;;;12.50;99.90;;;;;;5071586;28;20044;-72
2021/10/31 02:59:04;;;;;;;41.78;28.38;;;12.50;99.90;;;;;;5053643;28;20106;-72
2021/10/31 03:01:31;;;;;;;43.22;28.55;;;12.50;99.90;;;;;;5071637;28;20035;-72
2021/10/31 03:03:58;;;;;;;39.08;26.05;;;12.60;99.90;;;;;;5070233;28;20131;-72
2021/10/31 03:06:25;;;;;;;44.17;29.80;;;12.60;99.90;;;;;;5052482;28;20052;-73
2021/10/31 03:08:51;;;;;;;37.00;27.55;;;12.60;99.90;;;;;;5071999;28;20025;-72
2021/10/31 03:11:17;;;;;;;47.65;29.63;;;12.50;99.90;;;;;;5071672;28;20040;-72
2021/10/31 03:13:43;;;;;;;38.65;28.17;;;12.50;99.90;;;;;;5070868;28;20036;-72
2021/10/31 03:16:09;;;;;;;40.83;29.13;;;12.50;99.90;;;;;;5071170;28;20029;-73
2021/10/31 03:18:35;;;;;;;46.42;28.90;;;12.50;99.90;;;;;;5071674;28;20036;-72
2021/10/31 03:21:02;;;;;;;43.97;30.13;;;12.40;99.90;;;;;;5071855;28;20052;-73
2021/10/31 03:23:27;;;;;;;40.03;28.13;;;12.40;99.90;;;;;;5067838;28;20041;-72
2021/10/31 03:25:53;;;;;;;39.00;27.92;;;12.40;99.90;;;;;;5069108;28;20045;-72
2021/10/31 03:28:19;;;;;;;41.75;29.73;;;12.30;99.90;;;;;;5073656;28;20024;-72
2021/10/31 03:30:45;;;;;;;40.40;28.23;;;12.20;99.90;;;;;;5075342;28;20040;-72
2021/10/31 03:33:12;;;;;;;45.78;28.02;;;12.10;99.90;;;;;;5075033;28;20401;-73
2021/10/31 03:35:38;;;;;;;40.08;28.13;;;12.00;99.90;;;;;;5075340;28;20092;-71
2021/10/31 03:38:04;;;;;;;37.65;28.08;;;12.00;99.90;;;;;;5075290;28;20028;-72
2021/10/31 03:40:30;;;;;;;41.38;29.30;;;12.00;99.90;;;;;;5074939;28;20029;-72
2021/10/31 03:42:56;;;;;;;39.88;27.63;;;12.10;99.90;;;;;;5075080;28;20036;-72
2021/10/31 03:45:22;;;;;;;38.40;28.90;;;12.00;99.90;;;;;;5066633;28;20037;-72
2021/10/31 03:47:48;;;;;;;38.85;28.30;;;12.00;99.90;;;;;;5074978;28;20036;-73
2021/10/31 03:50:21;;;;;;;45.47;28.08;;;12.00;99.90;;;;;;5074409;28;20040;-72
2021/10/31 03:52:47;;;;;;;39.47;28.55;;;12.00;99.90;;;;;;5074889;28;20384;-72
2021/10/31 03:55:14;;;;;;;45.25;29.15;;;12.00;99.90;;;;;;5065927;28;20056;-72
2021/10/31 03:57:40;;;;;;;42.45;29.52;;;12.00;99.90;;;;;;5074199;28;20373;-72
2021/10/31 04:00:09;;;;;;;43.20;29.20;;;12.00;99.90;;;;;;5082275;28;20106;-72
2021/10/31 04:02:35;;;;;;;42.25;29.90;;;12.00;99.90;;;;;;5094994;28;20082;-72
2021/10/31 04:05:01;;;;;;;41.28;29.08;;;12.00;99.90;;;;;;5095045;28;20024;-72
2021/10/31 04:07:28;;;;;;;40.53;29.30;;;12.00;99.90;;;;;;5095145;28;20046;-72
2021/10/31 04:09:53;;;;;;;39.90;28.42;;;12.00;99.90;;;;;;5096204;28;20046;-73
2021/10/31 04:12:19;;;;;;;44.03;31.33;;;12.00;99.90;;;;;;5096420;28;20523;-72
2021/10/31 04:14:45;;;;;;;42.92;29.90;;;12.00;99.90;;;;;;5085172;28;20133;-72
2021/10/31 04:17:10;;;;;;;44.72;30.10;;;12.10;99.90;;;;;;5068882;28;20489;-72
2021/10/31 04:19:36;;;;;;;47.85;31.48;;;12.00;99.90;;;;;;5077315;28;20661;-72
2021/10/31 04:22:02;;;;;;;41.78;29.60;;;12.10;99.90;;;;;;5090134;28;20024;-72
2021/10/31 04:24:28;;;;;;;39.58;28.77;;;12.10;99.90;;;;;;5079707;28;20119;-72
2021/10/31 04:26:54;;;;;;;42.28;30.15;;;12.20;99.90;;;;;;5089971;28;20127;-72
2021/10/31 04:29:20;;;;;;;45.30;30.08;;;12.20;99.90;;;;;;5094206;28;20036;-72
2021/10/31 04:31:45;;;;;;;39.35;28.20;;;12.10;99.90;;;;;;5094002;28;20032;-72
2021/10/31 04:34:11;;;;;;;47.90;30.17;;;12.20;99.90;;;;;;5094103;28;20020;-72
2021/10/31 04:36:37;;;;;;;37.10;27.63;;;12.10;99.90;;;;;;5093980;28;20036;-72
2021/10/31 04:39:03;;;;;;;38.17;27.58;;;12.10;99.90;;;;;;5093952;28;20028;-72
2021/10/31 04:41:30;;;;;;;39.65;28.00;;;12.10;99.90;;;;;;5093696;28;20028;-72
2021/10/31 04:43:56;;;;;;;36.17;26.58;;;12.10;99.90;;;;;;5075946;28;20033;-72
2021/10/31 04:46:22;;;;;;;38.67;28.08;;;12.00;99.90;;;;;;5093631;28;20040;-72
2021/10/31 04:48:48;;;;;;;41.75;29.13;;;12.00;99.90;;;;;;5084901;28;20031;-73
2021/10/31 04:51:13;;;;;;;39.72;28.63;;;12.00;99.90;;;;;;5053029;28;20430;-73
2021/10/31 04:53:40;;;;;;;41.30;27.65;;;12.00;99.90;;;;;;5083954;28;20032;-72
2021/10/31 04:56:05;;;;;;;43.53;28.08;;;12.00;99.90;;;;;;5073358;28;20103;-73
2021/10/31 04:58:32;;;;;;;39.72;28.05;;;12.10;99.90;;;;;;5090451;28;20099;-73
2021/10/31 05:00:57;;;;;;;42.20;28.70;;;12.00;99.90;;;;;;5088747;28;20116;-72
2021/10/31 05:03:23;;;;;;;44.72;29.48;;;12.00;99.90;;;;;;5062777;28;20107;-73
2021/10/31 05:05:48;;;;;;;38.78;27.70;;;12.00;99.90;;;;;;5073143;28;20086;-72
2021/10/31 05:08:14;;;;;;;41.53;28.98;;;12.00;99.90;;;;;;5080933;28;20078;-73
2021/10/31 05:10:40;;;;;;;42.58;29.02;;;11.90;99.90;;;;;;5093271;28;20082;-73
2021/10/31 05:13:06;;;;;;;41.92;28.95;;;11.90;99.90;;;;;;5093137;28;20036;-73
2021/10/31 05:15:32;;;;;;;38.72;28.50;;;11.90;99.90;;;;;;5093170;28;20028;-72
2021/10/31 05:17:58;;;;;;;40.35;29.35;;;11.90;99.90;;;;;;5092801;28;20030;-73
2021/10/31 05:20:24;;;;;;;43.33;28.67;;;11.90;99.90;;;;;;5093188;28;20118;-73
2021/10/31 05:22:50;;;;;;;41.75;28.67;;;11.80;99.90;;;;;;5092978;28;20032;-73
2021/10/31 05:25:16;;;;;;;40.33;29.83;;;11.80;99.90;;;;;;5093223;28;20063;-73
2021/10/31 05:27:42;;;;;;;42.95;29.40;;;11.80;99.90;;;;;;5093256;28;20047;-72
2021/10/31 05:30:10;;;;;;;42.92;30.33;;;11.70;99.90;;;;;;5093320;28;20028;-73
2021/10/31 05:32:37;;;;;;;43.22;30.10;;;11.80;99.90;;;;;;5092826;28;20035;-72
2021/10/31 05:35:07;;;;;;;44.53;29.67;;;11.80;99.90;;;;;;5092539;28;20059;-73
2021/10/31 05:37:43;;;;;;;40.40;29.92;;;11.80;99.90;;;;;;5092738;28;20028;-73
2021/10/31 05:40:12;;;;;;;42.85;29.67;;;11.80;99.90;;;;;;5074381;28;20028;-72
2021/10/31 05:42:39;;;;;;;45.05;28.83;;;11.80;99.90;;;;;;5092831;28;20020;-73
2021/10/31 05:45:07;;;;;;;41.00;28.27;;;11.90;99.90;;;;;;5078435;28;20032;-73
2021/10/31 05:47:35;;;;;;;40.33;29.60;;;11.90;99.90;;;;;;5078532;28;20485;-73
2021/10/31 05:50:00;;;;;;;42.80;30.02;;;11.90;99.90;;;;;;5092335;28;20032;-72
2021/10/31 05:52:26;;;;;;;42.35;28.88;;;11.90;99.90;;;;;;5072320;28;20166;-72
2021/10/31 05:54:52;;;;;;;41.08;29.95;;;11.90;99.90;;;;;;5064635;28;20136;-73
2021/10/31 05:57:17;;;;;;;42.40;29.42;;;11.90;99.90;;;;;;5050844;28;20024;-73
2021/10/31 05:59:43;;;;;;;45.05;27.70;;;11.90;99.90;;;;;;5072766;28;20041;-73
2021/10/31 06:02:11;;;;;;;40.25;28.33;;;11.90;99.90;;;;;;5072408;28;20032;-73
2021/10/31 06:04:39;;;;;;;39.25;28.20;;;11.90;99.90;;;;;;5072599;28;20036;-72
2021/10/31 06:07:05;;;;;;;38.55;28.52;;;11.80;99.90;;;;;;5072578;28;20416;-73
2021/10/31 06:09:31;;;;;;;40.63;28.88;;;11.80;99.90;;;;;;5072428;28;20097;-73
2021/10/31 06:11:57;;;;;;;49.30;29.00;;;11.90;99.90;;;;;;5054452;28;20476;-73
2021/10/31 06:14:24;;;;;;;40.60;29.20;;;11.90;99.90;;;;;;5066696;28;20057;-73
2021/10/31 06:16:50;;;;;;;44.42;29.55;;;12.00;99.90;;;;;;5061261;28;20025;-72
2021/10/31 06:19:16;;;;;;;45.35;29.10;;;12.00;99.90;;;;;;5060388;28;20093;-72
2021/10/31 06:21:42;;;;;;;40.28;30.85;;;12.00;99.90;;;;;;5071202;28;20120;-73
2021/10/31 06:24:07;;;;;;;43.42;28.58;;;12.10;99.90;;;;;;5066680;28;20049;-72
2021/10/31 06:26:33;;;;;;;47.30;29.65;;;12.10;99.90;;;;;;5071026;28;20090;-73
2021/10/31 06:28:59;;;;;;;43.35;29.92;;;12.20;99.90;;;;;;5072146;28;20031;-72
2021/10/31 06:31:24;;;;;;;40.13;28.33;;;12.30;99.90;;;;;;5071512;28;20020;-72
2021/10/31 06:33:50;;;;;;;41.10;27.10;;;12.40;99.90;;;;;;5071938;28;20021;-73
2021/10/31 06:36:16;;;;;;;35.55;26.42;;;12.50;99.90;;;;;;5071510;28;20029;-73
2021/10/31 06:38:41;;;;;;;39.83;27.17;;;12.70;99.90;;;;;;5073993;28;20054;-73
2021/10/31 06:41:09;;;;;;;40.10;27.25;;;12.90;99.90;;;;;;5053404;28;20045;-73
2021/10/31 06:43:35;;;;;;;40.30;26.95;;;13.10;99.90;;;;;;5069767;28;20477;-72
2021/10/31 06:46:02;;;;;;;37.53;25.58;;;13.30;99.90;;;;;;5067859;28;20044;-74
2021/10/31 06:48:27;;;;;;;38.25;27.05;;;13.40;99.90;;;;;;5053646;28;20508;-72
2021/10/31 06:50:55;;;;;;;40.00;26.67;;;13.50;99.90;;;;;;5071755;28;20024;-73
2021/10/31 06:53:22;;;;;;;33.15;25.45;;;13.60;99.90;;;;;;5070967;28;20046;-72
2021/10/31 06:55:48;;;;;;;36.28;26.17;;;13.60;99.90;;;;;;5061099;28;20021;-73
2021/10/31 06:58:14;;;;;;;34.85;25.90;;;13.70;99.90;;;;;;5070877;28;20029;-72
2021/10/31 07:00:39;;;;;;;34.83;24.90;;;13.80;99.90;;;;;;5071594;28;20079;-72
2021/10/31 07:03:05;;;;;;;34.10;23.98;;;13.90;99.90;;;;;;5074984;28;20092;-73
2021/10/31 07:05:31;;;;;;;32.33;24.13;;;14.30;99.90;;;;;;5074873;28;20517;-73
2021/10/31 07:07:57;;;;;;;36.13;25.05;;;14.60;99.90;;;;;;5075052;28;20040;-72
2021/10/31 07:10:23;;;;;;;34.85;24.65;;;14.80;99.90;;;;;;5075069;28;20041;-72
2021/10/31 07:12:49;;;;;;;32.53;24.77;;;15.00;99.90;;;;;;5075249;28;20024;-72
2021/10/31 07:15:15;;;;;;;41.70;27.25;;;15.00;99.90;;;;;;5075249;28;20467;-72
2021/10/31 07:17:42;;;;;;;32.33;26.10;;;15.00;99.90;;;;;;5075222;28;20028;-73
2021/10/31 07:20:10;;;;;;;35.40;24.92;;;14.90;99.90;;;;;;5075343;28;20037;-73
2021/10/31 07:22:36;;;;;;;42.10;27.38;;;14.80;99.90;;;;;;5075367;28;20040;-72
2021/10/31 07:25:03;;;;;;;34.10;24.90;;;14.80;99.90;;;;;;5075093;28;20396;-73
2021/10/31 07:27:29;;;;;;;34.20;24.55;;;14.80;99.90;;;;;;5075108;28;20119;-72
2021/10/31 07:29:55;;;;;;;30.80;24.45;;;14.80;99.90;;;;;;5075302;28;20491;-72
2021/10/31 07:32:21;;;;;;;33.63;24.48;;;14.90;99.90;;;;;;5075037;28;20036;-73
2021/10/31 07:34:48;;;;;;;37.33;25.27;;;14.90;99.90;;;;;;5074835;28;20025;-73
2021/10/31 07:37:14;;;;;;;33.08;25.58;;;15.10;99.90;;;;;;5075013;28;20542;-73
2021/10/31 07:39:42;;;;;;;38.97;26.05;;;15.20;99.90;;;;;;5074573;28;20056;-72
2021/10/31 07:42:07;;;;;;;35.42;25.08;;;15.30;99.90;;;;;;5074708;28;20016;-73
2021/10/31 07:44:33;;;;;;;33.17;25.10;;;15.50;99.90;;;;;;5075035;28;20523;-73
2021/10/31 07:46:59;;;;;;;36.35;25.77;;;15.60;99.90;;;;;;5056602;28;20040;-73
2021/10/31 07:49:24;;;;;;;35.83;26.60;;;15.80;99.90;;;;;;5074625;28;20055;-73
2021/10/31 07:51:51;;;;;;;39.42;26.35;;;16.00;99.90;;;;;;5074680;28;20028;-73
2021/10/31 07:54:22;;;;;;;40.40;26.00;;;16.30;99.90;;;;;;5074824;28;20103;-73
2021/10/31 07:56:49;;;;;;;31.50;23.50;;;16.50;99.90;;;;;;5074893;28;20404;-73
2021/10/31 07:59:15;;;;;;;31.15;23.00;;;16.90;99.90;;;;;;5056378;28;20032;-73
2021/10/31 08:01:41;;;;;;;32.30;23.92;;;17.30;99.90;;;;;;5087657;28;20380;-73
2021/10/31 08:04:07;;;;;;;29.08;23.40;;;17.50;99.90;;;;;;5094572;28;20027;-73
2021/10/31 08:06:32;;;;;;;38.83;24.60;;;17.60;99.90;;;;;;5076823;28;20051;-73
2021/10/31 08:08:58;;;;;;;28.20;22.60;;;17.70;99.90;;;;;;5076854;28;20090;-73
2021/10/31 08:11:23;;;;;;;33.30;24.20;;;17.80;99.90;;;;;;5074292;28;20033;-73
2021/10/31 08:13:49;;;;;;;28.13;22.63;;;18.10;99.90;;;;;;5073534;28;20032;-73
2021/10/31 08:16:16;;;;;;;32.97;23.75;;;18.30;99.90;;;;;;5074326;28;20043;-73
2021/10/31 08:18:42;;;;;;;35.75;24.25;;;18.70;99.90;;;;;;5074239;28;20025;-73
2021/10/31 08:21:09;;;;;;;29.83;21.02;;;19.20;99.90;;;;;;5055822;28;20107;-73
2021/10/31 08:23:35;;;;;;;34.58;22.38;;;19.70;99.90;;;;;;5073896;28;20036;-73
2021/10/31 08:26:01;;;;;;;29.88;22.00;;;20.40;99.90;;;;;;5087864;28;20507;-73
2021/10/31 08:28:28;;;;;;;34.67;22.27;;;21.10;99.90;;;;;;5074027;28;20037;-74
2021/10/31 08:31:00;;;;;;;25.23;19.55;;;21.90;99.90;;;;;;5075931;28;20029;-73
2021/10/31 08:33:32;;;;;;;28.40;19.95;;;22.70;99.90;;;;;;5084746;28;20025;-74
2021/10/31 08:35:59;;;;;;;27.65;20.40;;;23.50;99.90;;;;;;5074298;28;20030;-74
2021/10/31 08:38:26;;;;;;;24.63;19.27;;;24.30;99.90;;;;;;5055260;28;20039;-74
2021/10/31 08:40:55;;;;;;;29.73;18.42;;;25.00;99.90;;;;;;5074004;28;20035;-73
2021/10/31 08:43:21;;;;;;;22.38;17.65;;;25.70;99.90;;;;;;5059830;28;20037;-74
2021/10/31 08:45:47;;;;;;;27.67;19.98;;;26.20;99.90;;;;;;5075305;28;20107;-74
2021/10/31 08:48:15;;;;;;;25.02;18.23;;;26.40;99.90;;;;;;5073797;28;20024;-74
2021/10/31 08:50:41;;;;;;;23.52;17.65;;;26.50;99.90;;;;;;5074070;28;20116;-72
2021/10/31 08:53:07;;;;;;;20.00;15.88;;;27.10;99.90;;;;;;5079077;28;20024;-73
2021/10/31 08:55:35;;;;;;;27.60;18.48;;;27.60;99.90;;;;;;5073018;28;20083;-73
2021/10/31 08:58:04;;;;;;;20.48;16.75;;;27.80;99.90;;;;;;5073868;28;20023;-73
2021/10/31 09:00:30;;;;;;;23.52;16.92;;;27.90;99.90;;;;;;5073305;28;20036;-74
2021/10/31 09:02:55;;;;;;;22.35;15.65;;;28.30;99.90;;;;;;5073196;28;20066;-74
2021/10/31 09:05:21;;;;;;;20.38;14.88;;;28.60;98.80;;;;;;5072326;28;20024;-73
2021/10/31 09:07:47;;;;;;;23.85;14.52;;;28.70;97.80;;;;;;5074125;28;20141;-74
2021/10/31 09:10:13;;;;;;;20.25;15.82;;;29.00;96.90;;;;;;5073352;28;20056;-73
2021/10/31 09:12:38;;;;;;;18.10;14.52;;;29.30;96.30;;;;;;5073315;28;20412;-74
2021/10/31 09:15:04;;;;;;;19.73;14.73;;;29.70;95.40;;;;;;5073375;28;20437;-74
2021/10/31 09:17:30;;;;;;;20.65;14.20;;;29.80;95.00;;;;;;5072998;28;20032;-73
2021/10/31 09:19:56;;;;;;;22.13;15.60;;;29.80;94.70;;;;;;5072439;28;20388;-74
2021/10/31 09:22:23;;;;;;;17.83;13.90;;;29.20;94.50;;;;;;5071568;28;20041;-73
2021/10/31 09:24:50;;;;;;;28.45;16.83;;;27.70;95.80;;;;;;5059236;28;20091;-73
2021/10/31 09:27:17;;;;;;;27.65;18.02;;;26.60;97.00;;;;;;5072759;28;20036;-73
2021/10/31 09:29:42;;;;;;;23.42;17.98;;;25.90;98.00;;;;;;5071227;28;20095;-73
2021/10/31 09:32:08;;;;;;;26.02;18.45;;;25.20;99.00;;;;;;5059060;28;20025;-73
2021/10/31 09:34:34;;;;;;;26.05;18.80;;;24.60;99.90;;;;;;5058748;28;20048;-73
2021/10/31 09:37:01;;;;;;;24.77;19.83;;;24.20;99.90;;;;;;5060762;28;20441;-73
2021/10/31 09:39:27;;;;;;;24.05;19.52;;;23.70;99.90;;;;;;5086682;28;20035;-73
2021/10/31 09:41:53;;;;;;;30.20;20.33;;;23.20;99.90;;;;;;5093028;28;20036;-74
2021/10/31 09:44:26;;;;;;;26.17;21.75;;;22.70;99.90;;;;;;5087076;28;20154;-73
2021/10/31 09:46:51;;;;;;;27.90;21.10;;;22.30;99.90;;;;;;5072729;28;20039;-74
2021/10/31 09:49:18;;;;;;;22.25;18.92;;;22.00;99.90;;;;;;5085383;28;20036;-74
2021/10/31 09:51:47;;;;;;;28.85;22.90;;;21.90;99.90;;;;;;5093268;28;20050;-74
2021/10/31 09:54:13;;;;;;;27.85;22.20;;;21.80;99.90;;;;;;5088088;28;20481;-73
2021/10/31 09:56:39;;;;;;;27.98;21.25;;;21.90;99.90;;;;;;5071669;28;20119;-74
2021/10/31 09:59:13;;;;;;;22.38;18.75;;;21.90;99.90;;;;;;5091476;28;20030;-74
2021/10/31 10:04:34;;;;;;;25.92;17.48;;;23.90;99.90;;;;;;5084829;28;20114;-74
2021/10/31 10:07:02;;;;;;;25.08;17.27;;;24.90;99.90;;;;;;5064567;28;20041;-74
2021/10/31 10:09:30;;;;;;;23.75;16.25;;;25.40;99.90;;;;;;5062490;28;20024;-73
2021/10/31 10:11:58;;;;;;;26.20;17.08;;;26.60;99.20;;;;;;5064652;28;20044;-73
2021/10/31 10:14:32;;;;;;;18.42;15.50;;;27.50;98.20;;;;;;5072512;28;20085;-74
2021/10/31 10:17:03;;;;;;;22.23;16.85;;;28.80;96.50;;;;;;5072442;28;20110;-74
2021/10/31 10:19:34;;;;;;;24.13;17.17;;;29.50;95.50;;;;;;5071964;28;20107;-73
2021/10/31 10:22:05;;;;;;;20.55;16.95;;;29.90;94.80;;;;;;5072130;28;20064;-74
2021/10/31 10:24:32;;;;;;;27.75;17.42;;;30.40;93.80;;;;;;5086125;28;20024;-73
2021/10/31 10:27:01;;;;;;;21.55;15.98;;;30.50;93.10;;;;;;5087928;28;20080;-74
2021/10/31 10:29:30;;;;;;;19.30;15.50;;;30.50;92.60;;;;;;5075009;28;20082;-73
2021/10/31 10:32:00;;;;;;;22.65;17.00;;;30.10;92.50;;;;;;5092257;28;20028;-73
2021/10/31 10:34:31;;;;;;;22.17;16.57;;;29.10;93.40;;;;;;5092574;28;20032;-74
2021/10/31 10:37:00;;;;;;;19.38;16.08;;;28.10;94.20;;;;;;5076103;28;20032;-73
2021/10/31 10:39:32;;;;;;;22.80;17.95;;;27.30;95.00;;;;;;5096611;28;20454;-73
2021/10/31 10:41:58;;;;;;;27.67;16.67;;;26.70;95.80;;;;;;5096350;28;20028;-74
2021/10/31 10:44:25;;;;;;;22.17;17.77;;;26.20;96.30;;;;;;5090465;28;20102;-74
2021/10/31 10:47:08;;;;;;;29.10;17.77;;;25.80;96.60;;;;;;5076612;28;20032;-73
2021/10/31 10:49:43;;;;;;;28.50;19.30;;;25.30;96.70;;;;;;5075192;28;20017;-73
2021/10/31 10:52:24;;;;;;;27.73;19.50;;;24.90;97.10;;;;;;5064789;28;20035;-73
2021/10/31 10:54:55;;;;;;;26.75;20.05;;;24.50;97.50;;;;;;5074256;28;20029;-73
2021/10/31 10:57:23;;;;;;;27.60;21.73;;;24.30;97.70;;;;;;5080395;28;20036;-73
2021/10/31 11:00:18;;;;;;;34.72;22.50;;;24.00;98.00;;;;;;5076336;28;20028;-73
2021/10/31 11:02:45;;;;;;;35.47;24.23;;;23.80;98.20;;;;;;5096136;28;20032;-73
2021/10/31 11:05:14;;;;;;;39.45;25.55;;;23.60;97.70;;;;;;5096460;28;20050;-73
2021/10/31 11:07:48;;;;;;;40.15;28.73;;;23.50;97.50;;;;;;5096027;28;20036;-72
2021/10/31 11:10:25;;;;;;;36.40;26.13;;;23.40;97.00;;;;;;5095976;28;20035;-73
2021/10/31 11:12:57;;;;;;;41.88;30.52;;;23.30;97.30;;;;;;5095414;28;20020;-73
2021/10/31 11:15:29;;;;;;;43.67;30.75;;;23.20;96.80;;;;;;5068424;28;20024;-73
2021/10/31 11:17:57;;;;;;;39.90;29.15;;;23.10;97.30;;;;;;5095493;28;20032;-73
2021/10/31 11:20:28;;;;;;;38.15;26.90;;;22.90;97.60;;;;;;5095119;28;20109;-73
2021/10/31 11:22:57;;;;;;;31.40;24.88;;;22.90;98.50;;;;;;5095703;28;20028;-73
2021/10/31 11:25:25;;;;;;;32.42;25.20;;;22.70;99.30;;;;;;5096301;28;20020;-73
2021/10/31 11:27:53;;;;;;;38.42;26.20;;;22.50;99.80;;;;;;5095990;28;20391;-73
2021/10/31 11:30:21;;;;;;;39.08;28.15;;;22.40;99.80;;;;;;5095935;28;20400;-73
2021/10/31 11:32:48;;;;;;;49.70;29.73;;;22.20;99.90;;;;;;5079265;28;20055;-72
2021/10/31 11:35:18;;;;;;;40.13;27.55;;;22.00;99.90;;;;;;5095928;28;20032;-73
2021/10/31 11:37:56;;;;;;;39.92;27.45;;;21.90;99.90;;;;;;5095416;28;20557;-73
2021/10/31 11:41:00;;;;;;;42.10;29.25;;;21.80;99.90;;;;;;5095601;28;20035;-73
2021/10/31 11:43:32;;;;;;;43.35;31.60;;;21.70;99.90;;;;;;5077624;28;20035;-73
2021/10/31 11:45:58;;;;;;;46.50;32.90;;;21.70;99.50;;;;;;5095519;28;20030;-74
2021/10/31 11:48:32;;;;;;;46.45;32.33;;;21.50;98.70;;;;;;5094764;28;20039;-73
2021/10/31 11:51:03;;;;;;;47.40;32.10;;;21.50;99.00;;;;;;5095370;28;20022;-72
2021/10/31 11:53:43;;;;;;;55.55;32.15;;;21.40;99.50;;;;;;5095517;28;20073;-73
2021/10/31 11:56:26;;;;;;;44.22;31.38;;;21.30;99.30;;;;;;5076173;28;20073;-74
2021/10/31 11:58:55;;;;;;;46.15;32.30;;;21.30;99.50;;;;;;5077099;28;20516;-73
2021/10/31 12:01:32;;;;;;;47.38;29.83;;;21.30;99.60;;;;;;5095147;28;20032;-73
2021/10/31 12:04:01;;;;;;;47.05;31.23;;;21.20;99.90;;;;;;5082969;28;21045;-73
2021/10/31 12:06:26;;;;;;;45.47;30.25;;;21.10;99.90;;;;;;5073915;28;20046;-73
2021/10/31 12:08:58;;;;;;;45.00;29.33;;;21.00;99.90;;;;;;5082524;28;20029;-74
2021/10/31 12:11:29;;;;;;;56.78;31.00;;;20.90;99.90;;;;;;5094995;28;20032;-73
2021/10/31 12:13:56;;;;;;;54.20;29.60;;;20.80;99.90;;;;;;5091099;28;20498;-73
2021/10/31 12:16:30;;;;;;;43.03;30.10;;;20.80;99.90;;;;;;5080938;28;20028;-73
2021/10/31 12:19:10;;;;;;;44.50;31.38;;;20.80;99.90;;;;;;5068452;28;20032;-73
2021/10/31 12:21:38;;;;;;;47.50;32.35;;;20.80;99.90;;;;;;5061888;28;20116;-73
2021/10/31 12:24:10;;;;;;;42.33;30.25;;;20.80;99.90;;;;;;5067553;28;20123;-73
2021/10/31 12:26:38;;;;;;;51.50;32.72;;;20.50;99.90;;;;;;5087831;28;20499;-73
2021/10/31 12:29:33;;;;;;;47.05;34.08;;;20.40;99.90;;;;;;5086240;28;20093;-72
2021/10/31 12:32:01;;;;;;;42.78;31.35;;;20.30;99.90;;;;;;5072672;28;20116;-74
2021/10/31 12:34:33;;;;;;;47.17;33.55;;;20.30;99.90;;;;;;5070601;28;20115;-72
2021/10/31 12:37:00;;;;;;;46.42;32.90;;;20.10;99.90;;;;;;5074008;28;20020;-73
2021/10/31 12:39:30;;;;;;;53.58;35.05;;;20.00;99.90;;;;;;5073247;28;20033;-74
2021/10/31 12:42:29;;;;;;;50.88;35.75;;;20.00;99.90;;;;;;5073277;28;20025;-74